Flying Cat 5 — SY5393 — position and weather

sailwx.info

Track history (hours):
 
Tides and Currents Weather Stations Pressure Air Temp Water Temp Dewpoint Dewpoint Depression Visibility Wind Speed Wind Dir Waves Ship Positions

Flying Cat 5

Last reported at 2017-Dec-11 15:44 UTC. Time now 2017-Dec-14 15:02 UTC.
Position N 37°57' E 023°39'.

Length 40 m; draft 1.5 m.

Type: High speed craft. MMSI: 237836900.

Date/timePositionNaut miles runAvg speedWind from/ knotsBaromVisibWave heightAir tempDewpointWater temp
2017-Dec-11 15:44N 37°57' E 023°39'0 0.0
2017-Dec-11 15:30N 37°57' E 023°39'0 0.0
2017-Dec-11 15:01N 37°57' E 023°39'918.0
2017-Dec-11 14:30N 37°48' E 023°35'1122.2
2017-Dec-11 14:00N 37°38' E 023°30'814.2
2017-Dec-11 13:26N 37°30' E 023°27'715.3
2017-Dec-11 12:58N 37°23' E 023°29'6 2.0
2017-Dec-11 10:10N 37°22' E 023°22'511.9
2017-Dec-11 09:46N 37°22' E 023°28'716.5
2017-Dec-11 09:20N 37°29' E 023°30'310.0
2017-Dec-11 09:01N 37°30' E 023°27'917.0
2017-Dec-11 08:30N 37°38' E 023°31'1121.5
2017-Dec-11 08:01N 37°48' E 023°35'917.5
2017-Dec-11 07:30N 37°57' E 023°39'0 0.0
2017-Dec-11 07:00N 37°57' E 023°39'714.2
2017-Dec-11 06:31N 37°51' E 023°33'916.5
2017-Dec-11 05:59N 37°45' E 023°26'613.3
2017-Dec-11 05:30N 37°50' E 023°31'918.8
2017-Dec-11 05:01N 37°57' E 023°39'0 0.0
2017-Dec-11 04:30N 37°57' E 023°39'0 0.0
2017-Dec-11 04:00N 37°57' E 023°39'0 0.0
2017-Dec-11 03:30N 37°57' E 023°39'0 0.0
2017-Dec-10 15:49N 37°57' E 023°39'0 0.0
2017-Dec-10 15:30N 37°57' E 023°39'3 5.3
2017-Dec-10 15:01N 37°55' E 023°36'1020.6
2017-Dec-10 14:30N 37°45' E 023°34'1121.5
2017-Dec-10 14:00N 37°35' E 023°27'611.4
2017-Dec-10 13:30N 37°30' E 023°28'816.2
2017-Dec-10 13:00N 37°21' E 023°28'6 2.2
2017-Dec-10 10:15N 37°22' E 023°21'613.5
2017-Dec-10 09:48N 37°21' E 023°28'816.6
2017-Dec-10 09:21N 37°29' E 023°30'3 9.0
2017-Dec-10 09:00N 37°30' E 023°26'919.1
2017-Dec-10 08:30N 37°39' E 023°30'1019.9
2017-Dec-10 08:01N 37°49' E 023°33'917.2
2017-Dec-10 07:31N 37°57' E 023°39'0 0.1
2017-Dec-10 07:00N 37°57' E 023°39'0 0.0
2017-Dec-10 06:30N 37°57' E 023°39'0 0.0
2017-Dec-10 06:00N 37°57' E 023°39'0 0.0
2017-Dec-09 15:37N 37°57' E 023°39'0 0.0
2017-Dec-09 15:30N 37°57' E 023°39'0 0.3
2017-Dec-09 15:00N 37°57' E 023°38'918.2
2017-Dec-09 14:31N 37°48' E 023°35'1121.7
2017-Dec-09 14:00N 37°38' E 023°29'814.5
2017-Dec-09 13:26N 37°30' E 023°27'715.8
2017-Dec-09 12:59N 37°23' E 023°30'6 2.1
2017-Dec-09 10:10N 37°22' E 023°22'422.9
2017-Dec-09 10:00N 37°21' E 023°27'713.9
2017-Dec-09 09:30N 37°26' E 023°33'612.5
2017-Dec-09 08:59N 37°30' E 023°27'917.9
2017-Dec-09 08:31N 37°39' E 023°29'1121.5
2017-Dec-09 08:00N 37°48' E 023°35'917.6
2017-Dec-09 07:30N 37°57' E 023°39'0 0.0
2017-Dec-09 07:00N 37°57' E 023°39'0 0.0
2017-Dec-09 06:30N 37°57' E 023°39'0 0.0
2017-Dec-09 06:00N 37°57' E 023°39'0 0.0
2017-Dec-08 15:49N 37°57' E 023°39'0 0.0
2017-Dec-08 15:30N 37°57' E 023°39'2 4.1
2017-Dec-08 15:00N 37°55' E 023°37'1121.4
2017-Dec-08 14:31N 37°45' E 023°34'1121.2
2017-Dec-08 14:00N 37°36' E 023°27'611.8
2017-Dec-08 13:29N 37°30' E 023°28'8 9.6
2017-Dec-08 12:38N 37°22' E 023°26'912.4
2017-Dec-08 11:56N 37°20' E 023°15'6 7.1
2017-Dec-08 11:06N 37°16' E 023°09'1212.5
2017-Dec-08 10:09N 37°22' E 023°22'423.1
2017-Dec-08 09:59N 37°21' E 023°27'811.6
2017-Dec-08 09:19N 37°29' E 023°30'3 8.6
2017-Dec-08 08:57N 37°30' E 023°27'818.4
2017-Dec-08 08:31N 37°38' E 023°30'1122.1
2017-Dec-08 08:01N 37°48' E 023°35'917.5
2017-Dec-08 07:30N 37°57' E 023°39'0 0.0
2017-Dec-08 07:00N 37°57' E 023°39'0 0.0
2017-Dec-08 06:31N 37°57' E 023°39'0 0.0
2017-Dec-08 06:01N 37°57' E 023°39'0 0.0
2017-Dec-08 05:30N 37°57' E 023°39'0 0.0
2017-Dec-07 16:33N 37°57' E 023°39'0 0.1
2017-Dec-07 16:30N 37°57' E 023°39'0 0.0
2017-Dec-07 16:00N 37°57' E 023°39'0 0.0
2017-Dec-07 15:30N 37°57' E 023°39'0 0.0
2017-Dec-07 15:00N 37°57' E 023°39'816.1
2017-Dec-07 14:31N 37°49' E 023°35'1121.9
2017-Dec-07 14:01N 37°39' E 023°30'915.4
2017-Dec-07 13:24N 37°30' E 023°27'815.0
2017-Dec-07 12:54N 37°22' E 023°29'511.6
2017-Dec-07 12:31N 37°22' E 023°23'2 0.9
2017-Dec-07 10:10N 37°23' E 023°21'423.5
2017-Dec-07 10:00N 37°22' E 023°25'713.9
2017-Dec-07 09:30N 37°26' E 023°33'612.6
2017-Dec-07 09:00N 37°30' E 023°27'917.8
2017-Dec-07 08:30N 37°39' E 023°30'1121.9
2017-Dec-07 08:01N 37°49' E 023°35'816.8
2017-Dec-07 07:30N 37°57' E 023°39'0 0.0
2017-Dec-07 07:01N 37°57' E 023°39'0 0.0
2017-Dec-07 06:30N 37°57' E 023°39'0 0.0
2017-Dec-07 06:00N 37°57' E 023°39'0 0.0
2017-Dec-07 05:30N 37°57' E 023°39'  
2017-Dec-04 10:19N 37°22' E 023°21'612.4
2017-Dec-04 09:50N 37°22' E 023°28'716.5
2017-Dec-04 09:23N 37°29' E 023°30'3 8.1
2017-Dec-04 08:59N 37°31' E 023°26'919.1
2017-Dec-04 08:30N 37°39' E 023°30'1021.0
2017-Dec-04 08:00N 37°49' E 023°36'816.5
2017-Dec-04 07:30N 37°57' E 023°39'0 0.0
2017-Dec-04 07:00N 37°57' E 023°39'0 0.0
2017-Dec-04 06:30N 37°57' E 023°39'0 0.0
2017-Dec-04 06:00N 37°57' E 023°39'0 0.0
2017-Dec-04 05:30N 37°57' E 023°39'0 0.0
2017-Dec-03 09:57N 37°57' E 023°39'0 0.0
2017-Dec-03 09:30N 37°57' E 023°39'0 0.0
2017-Dec-03 09:00N 37°57' E 023°39'0 0.0
2017-Dec-03 08:30N 37°57' E 023°39'0 0.0
2017-Dec-03 08:00N 37°57' E 023°39'0 0.0
2017-Dec-03 07:30N 37°57' E 023°39'0 0.0
2017-Dec-03 07:00N 37°57' E 023°39'0 0.0
2017-Dec-03 06:30N 37°57' E 023°39'0 0.0
2017-Dec-03 06:00N 37°57' E 023°39'0 0.0
2017-Dec-03 05:30N 37°57' E 023°39'0 0.0
2017-Dec-02 12:53N 37°57' E 023°39'0 0.0
2017-Dec-02 12:30N 37°57' E 023°39'0 0.0
2017-Dec-02 12:00N 37°57' E 023°39'0 0.0
2017-Dec-02 11:30N 37°57' E 023°39'0 0.0
2017-Dec-02 11:00N 37°57' E 023°39'0 0.0
2017-Dec-02 10:30N 37°57' E 023°39'0 0.0
2017-Dec-02 10:00N 37°57' E 023°39'0 0.0
2017-Dec-02 09:30N 37°57' E 023°39'0 0.0
2017-Dec-02 09:00N 37°57' E 023°39'0 0.0
2017-Dec-02 08:30N 37°57' E 023°39'0 0.0
2017-Dec-02 08:00N 37°57' E 023°39'0 0.0
2017-Dec-02 07:30N 37°57' E 023°39'0 0.0
2017-Dec-02 07:00N 37°57' E 023°39'0 0.0
2017-Dec-02 06:30N 37°57' E 023°39'0 0.0
2017-Dec-02 06:00N 37°57' E 023°39'0 0.0
2017-Dec-01 15:59N 37°57' E 023°39'  
Track history (hours):
 
Tides and Currents Weather Stations Pressure Air Temp Water Temp Dewpoint Dewpoint Depression Visibility Wind Speed Wind Dir Waves Ship Positions

Flying Cat 5

Last reported at 2017-Dec-11 15:44 UTC. Time now 2017-Dec-14 15:02 UTC.
Position N 37°57' E 023°39'.

Length 40 m; draft 1.5 m.

Type: High speed craft. MMSI: 237836900.

Date/timePositionNaut miles runAvg speedWind from/ knotsBaromVisibWave heightAir tempDewpointWater temp
2017-Dec-11 15:44N 37°57' E 023°39'0 0.0
2017-Dec-11 15:30N 37°57' E 023°39'0 0.0
2017-Dec-11 15:01N 37°57' E 023°39'918.0
2017-Dec-11 14:30N 37°48' E 023°35'1122.2
2017-Dec-11 14:00N 37°38' E 023°30'814.2
2017-Dec-11 13:26N 37°30' E 023°27'715.3
2017-Dec-11 12:58N 37°23' E 023°29'6 2.0
2017-Dec-11 10:10N 37°22' E 023°22'511.9
2017-Dec-11 09:46N 37°22' E 023°28'716.5
2017-Dec-11 09:20N 37°29' E 023°30'310.0
2017-Dec-11 09:01N 37°30' E 023°27'917.0
2017-Dec-11 08:30N 37°38' E 023°31'1121.5
2017-Dec-11 08:01N 37°48' E 023°35'917.5
2017-Dec-11 07:30N 37°57' E 023°39'0 0.0
2017-Dec-11 07:00N 37°57' E 023°39'714.2
2017-Dec-11 06:31N 37°51' E 023°33'916.5
2017-Dec-11 05:59N 37°45' E 023°26'613.3
2017-Dec-11 05:30N 37°50' E 023°31'918.8
2017-Dec-11 05:01N 37°57' E 023°39'0 0.0
2017-Dec-11 04:30N 37°57' E 023°39'0 0.0
2017-Dec-11 04:00N 37°57' E 023°39'0 0.0
2017-Dec-11 03:30N 37°57' E 023°39'0 0.0
2017-Dec-10 15:49N 37°57' E 023°39'0 0.0
2017-Dec-10 15:30N 37°57' E 023°39'3 5.3
2017-Dec-10 15:01N 37°55' E 023°36'1020.6
2017-Dec-10 14:30N 37°45' E 023°34'1121.5
2017-Dec-10 14:00N 37°35' E 023°27'611.4
2017-Dec-10 13:30N 37°30' E 023°28'816.2
2017-Dec-10 13:00N 37°21' E 023°28'6 2.2
2017-Dec-10 10:15N 37°22' E 023°21'613.5
2017-Dec-10 09:48N 37°21' E 023°28'816.6
2017-Dec-10 09:21N 37°29' E 023°30'3 9.0
2017-Dec-10 09:00N 37°30' E 023°26'919.1
2017-Dec-10 08:30N 37°39' E 023°30'1019.9
2017-Dec-10 08:01N 37°49' E 023°33'917.2
2017-Dec-10 07:31N 37°57' E 023°39'0 0.1
2017-Dec-10 07:00N 37°57' E 023°39'0 0.0
2017-Dec-10 06:30N 37°57' E 023°39'0 0.0
2017-Dec-10 06:00N 37°57' E 023°39'0 0.0
2017-Dec-09 15:37N 37°57' E 023°39'0 0.0
2017-Dec-09 15:30N 37°57' E 023°39'0 0.3
2017-Dec-09 15:00N 37°57' E 023°38'918.2
2017-Dec-09 14:31N 37°48' E 023°35'1121.7
2017-Dec-09 14:00N 37°38' E 023°29'814.5
2017-Dec-09 13:26N 37°30' E 023°27'715.8
2017-Dec-09 12:59N 37°23' E 023°30'6 2.1
2017-Dec-09 10:10N 37°22' E 023°22'422.9
2017-Dec-09 10:00N 37°21' E 023°27'713.9
2017-Dec-09 09:30N 37°26' E 023°33'612.5
2017-Dec-09 08:59N 37°30' E 023°27'917.9
2017-Dec-09 08:31N 37°39' E 023°29'1121.5
2017-Dec-09 08:00N 37°48' E 023°35'917.6
2017-Dec-09 07:30N 37°57' E 023°39'0 0.0
2017-Dec-09 07:00N 37°57' E 023°39'0 0.0
2017-Dec-09 06:30N 37°57' E 023°39'0 0.0
2017-Dec-09 06:00N 37°57' E 023°39'0 0.0
2017-Dec-08 15:49N 37°57' E 023°39'0 0.0
2017-Dec-08 15:30N 37°57' E 023°39'2 4.1
2017-Dec-08 15:00N 37°55' E 023°37'1121.4
2017-Dec-08 14:31N 37°45' E 023°34'1121.2
2017-Dec-08 14:00N 37°36' E 023°27'611.8
2017-Dec-08 13:29N 37°30' E 023°28'8 9.6
2017-Dec-08 12:38N 37°22' E 023°26'912.4
2017-Dec-08 11:56N 37°20' E 023°15'6 7.1
2017-Dec-08 11:06N 37°16' E 023°09'1212.5
2017-Dec-08 10:09N 37°22' E 023°22'423.1
2017-Dec-08 09:59N 37°21' E 023°27'811.6
2017-Dec-08 09:19N 37°29' E 023°30'3 8.6
2017-Dec-08 08:57N 37°30' E 023°27'818.4
2017-Dec-08 08:31N 37°38' E 023°30'1122.1
2017-Dec-08 08:01N 37°48' E 023°35'917.5
2017-Dec-08 07:30N 37°57' E 023°39'0 0.0
2017-Dec-08 07:00N 37°57' E 023°39'0 0.0
2017-Dec-08 06:31N 37°57' E 023°39'0 0.0
2017-Dec-08 06:01N 37°57' E 023°39'0 0.0
2017-Dec-08 05:30N 37°57' E 023°39'0 0.0
2017-Dec-07 16:33N 37°57' E 023°39'0 0.1
2017-Dec-07 16:30N 37°57' E 023°39'0 0.0
2017-Dec-07 16:00N 37°57' E 023°39'0 0.0
2017-Dec-07 15:30N 37°57' E 023°39'0 0.0
2017-Dec-07 15:00N 37°57' E 023°39'816.1
2017-Dec-07 14:31N 37°49' E 023°35'1121.9
2017-Dec-07 14:01N 37°39' E 023°30'915.4
2017-Dec-07 13:24N 37°30' E 023°27'815.0
2017-Dec-07 12:54N 37°22' E 023°29'511.6
2017-Dec-07 12:31N 37°22' E 023°23'2 0.9
2017-Dec-07 10:10N 37°23' E 023°21'423.5
2017-Dec-07 10:00N 37°22' E 023°25'713.9
2017-Dec-07 09:30N 37°26' E 023°33'612.6
2017-Dec-07 09:00N 37°30' E 023°27'917.8
2017-Dec-07 08:30N 37°39' E 023°30'1121.9
2017-Dec-07 08:01N 37°49' E 023°35'816.8
2017-Dec-07 07:30N 37°57' E 023°39'0 0.0
2017-Dec-07 07:01N 37°57' E 023°39'0 0.0
2017-Dec-07 06:30N 37°57' E 023°39'0 0.0
2017-Dec-07 06:00N 37°57' E 023°39'0 0.0
2017-Dec-07 05:30N 37°57' E 023°39'  
2017-Dec-04 10:19N 37°22' E 023°21'612.4
2017-Dec-04 09:50N 37°22' E 023°28'716.5
2017-Dec-04 09:23N 37°29' E 023°30'3 8.1
2017-Dec-04 08:59N 37°31' E 023°26'919.1
2017-Dec-04 08:30N 37°39' E 023°30'1021.0
2017-Dec-04 08:00N 37°49' E 023°36'816.5
2017-Dec-04 07:30N 37°57' E 023°39'0 0.0
2017-Dec-04 07:00N 37°57' E 023°39'0 0.0
2017-Dec-04 06:30N 37°57' E 023°39'0 0.0
2017-Dec-04 06:00N 37°57' E 023°39'0 0.0
2017-Dec-04 05:30N 37°57' E 023°39'0 0.0
2017-Dec-03 09:57N 37°57' E 023°39'0 0.0
2017-Dec-03 09:30N 37°57' E 023°39'0 0.0
2017-Dec-03 09:00N 37°57' E 023°39'0 0.0
2017-Dec-03 08:30N 37°57' E 023°39'0 0.0
2017-Dec-03 08:00N 37°57' E 023°39'0 0.0
2017-Dec-03 07:30N 37°57' E 023°39'0 0.0
2017-Dec-03 07:00N 37°57' E 023°39'0 0.0
2017-Dec-03 06:30N 37°57' E 023°39'0 0.0
2017-Dec-03 06:00N 37°57' E 023°39'0 0.0
2017-Dec-03 05:30N 37°57' E 023°39'0 0.0
2017-Dec-02 12:53N 37°57' E 023°39'0 0.0
2017-Dec-02 12:30N 37°57' E 023°39'0 0.0
2017-Dec-02 12:00N 37°57' E 023°39'0 0.0
2017-Dec-02 11:30N 37°57' E 023°39'0 0.0
2017-Dec-02 11:00N 37°57' E 023°39'0 0.0
2017-Dec-02 10:30N 37°57' E 023°39'0 0.0
2017-Dec-02 10:00N 37°57' E 023°39'0 0.0
2017-Dec-02 09:30N 37°57' E 023°39'0 0.0
2017-Dec-02 09:00N 37°57' E 023°39'0 0.0
2017-Dec-02 08:30N 37°57' E 023°39'0 0.0
2017-Dec-02 08:00N 37°57' E 023°39'0 0.0
2017-Dec-02 07:30N 37°57' E 023°39'0 0.0
2017-Dec-02 07:00N 37°57' E 023°39'0 0.0
2017-Dec-02 06:30N 37°57' E 023°39'0 0.0
2017-Dec-02 06:00N 37°57' E 023°39'0 0.0
2017-Dec-01 15:59N 37°57' E 023°39'  

Dump ship's entire track history